• Join FlightAware (Why Join?)
  • Login
  • US Flag 
07:02AM EDT


 

Airport Tracker/Info


-or-


 

Live Flight TrackerFlight Track Log ✈ N125TV ✈ 13-May-2014 ✈ KABY - KMOB

Flight Track Log - Related Links

Times and Time Zones

All times are in EDT time to prevent confusion due to time zone crossing. See the N125TV flight status page for this flight to view local times or setup timezone preferences in your user account.

Time Position Orientation Groundspeed Altitude Reporting Facility
EDT Latitude Longitude Course Direction KTS MPH feet Rate Location/Type
02:23PM 31.5164 -84.2403 252° West 169 194 1,300  Level Jacksonville Center
02:24PM 31.5214 -84.2456 252° West  Level FlightAware Approximate
02:24PM 31.5117 -84.2864 263° West 149 171 2,100  Level Jacksonville Center
02:25PM 31.5028 -84.3325 257° West 149 171 3,000 900 Climbing Jacksonville Center
02:26PM 31.4961 -84.3789 260° West 143 165 4,000 960 Climbing Jacksonville Center
02:27PM 31.4869 -84.4250 257° West 143 165 5,000 840 Climbing Jacksonville Center
02:28PM 31.4864 -84.4761 269° West 143 165 5,700 540 Climbing Jacksonville Center
02:29PM 31.4775 -84.5319 259° West 155 178 6,100 180 Climbing Jacksonville Center
02:30PM 31.4600 -84.5903 251° West 174 200 6,100 180 Level Jacksonville Center
02:31PM 31.4528 -84.6533 262° West 187 215 6,500 540 Climbing Jacksonville Center
02:31PM 31.4506 -84.6728 262° West 179 206 6,900 780 Climbing Jacksonville Center
02:32PM 31.4436 -84.7042 255° West 187 215 7,300 480 Climbing Jacksonville Center
02:33PM 31.4367 -84.7553 261° West 165 190 7,700 360 Climbing Jacksonville Center
02:34PM 31.4275 -84.8086 259° West 175 201 8,000 180 Climbing Jacksonville Center
02:35PM 31.4119 -84.8742 254° West 181 208 8,100  Climbing Jacksonville Center
02:36PM 31.4047 -84.9300 261° West 181 208 8,100  Level Jacksonville Center
02:37PM 31.3975 -84.9881 262° West 175 201 8,100  Level Jacksonville Center
02:38PM 31.3822 -85.0414 251° West 179 206 8,100  Level Jacksonville Center
02:38PM 31.3667 -85.0822 246° West 175 201 8,100  Level Jacksonville Center
02:39PM 31.3603 -85.0919 232° Southwest 179 206 8,100  Level Jacksonville Center
02:39PM 31.3472 -85.1281 247° West 172 198 8,100  Level Jacksonville Center
02:40PM 31.3406 -85.1475 248° West 184 212 8,100  Level Jacksonville Center
02:40PM 31.3317 -85.1836 254° West 176 203 8,100  Level Jacksonville Center
02:41PM 31.3250 -85.1956 237° Southwest 184 212 8,100  Level Jacksonville Center
02:42PM 31.3117 -85.2439 252° West 176 203 8,100  Level Jacksonville Center
02:43PM 31.2981 -85.3019 255° West 176 203 8,100  Level Jacksonville Center
02:44PM 31.2825 -85.3525 250° West 178 205 8,100  Level Jacksonville Center
02:45PM 31.2667 -85.4131 253° West 178 205 8,100 -60 Level Jacksonville Center
02:46PM 31.2531 -85.4661 253° West 179 206 8,000  Descending Jacksonville Center
02:46PM 31.2353 -85.5167 248° West 178 205 8,100  Climbing Jacksonville Center
02:47PM 31.2072 -85.5594 233° Southwest 173 199 8,100  Level Jacksonville Center
02:48PM 31.1750 -85.6072 232° Southwest 173 199 8,100  Level Jacksonville Center
02:50PM 31.1492 -85.6500 235° Southwest 174 200 8,100  Level Jacksonville Center
02:51PM 31.1189 -85.6978 233° Southwest 174 200 8,100 60 Level Jacksonville Center
03:05PM 30.8594 -86.4619 268° West 169 194 10,000 60 Climbing Jacksonville Center
03:06PM 30.8777 -86.4735 250° West  Level FlightAware Approximate
03:06PM 30.8456 -86.5147 253° West 164 189 10,000  Level Jacksonville Center
03:07PM 30.8614 -86.5251 250° West  Level FlightAware Approximate
03:07PM 30.8442 -86.5653 268° West 192 221 10,000  Level Jacksonville Center
03:08PM 30.8455 -86.5769 250° West  Level FlightAware Approximate
03:08PM 30.8381 -86.6233 263° West 187 215 10,000  Level Jacksonville Center
03:09PM 30.8293 -86.6287 249° West  Level FlightAware Approximate
03:09PM 30.8386 -86.6814 271° West 180 207 10,000  Level Jacksonville Center
03:10PM 30.8159 -86.6808 266° West  Level FlightAware Approximate
03:10PM 30.8347 -86.7367 265° West 180 207 10,000  Level Jacksonville Center
03:11PM 30.8141 -86.7355 268° West  Level FlightAware Approximate
03:11PM 30.8300 -86.7583 256° West 176 203 10,000  Level Jacksonville Center
03:11PM 30.8350 -86.7950 279° West 180 207 10,000  Level Jacksonville Center
03:12PM 30.8281 -86.8189 251° West 185 213 10,000  Level Jacksonville Center
03:12PM 30.8292 -86.8550 272° West 180 207 10,000  Level Jacksonville Center
03:13PM 30.8264 -86.8744 261° West 187 215 10,000  Level Jacksonville Center
03:13PM 30.8231 -86.9153 265° West 185 213 10,000  Level Jacksonville Center
03:14PM 30.8206 -86.9297 259° West 186 214 10,000  Level Jacksonville Center
03:14PM 30.8169 -86.9731 264° West 185 213 10,000  Level Jacksonville Center
03:15PM 30.8119 -86.9969 256° West 186 214 10,000 -120 Level Jacksonville Center
03:15PM 30.8067 -87.0306 260° West 185 213 9,900  Descending Jacksonville Center
03:16PM 30.8039 -87.0572 263° West 185 213 10,000  Climbing Jacksonville Center
03:16PM 30.8028 -87.0911 268° West 185 213 9,900 -120 Descending Jacksonville Center
03:17PM 30.7981 -87.1100 254° West 182 209 9,900  Level Jacksonville Center
03:17PM 30.7986 -87.1489 271° West 185 213 9,900  Level Jacksonville Center
03:18PM 30.7914 -87.1775 254° West 187 215 9,900  Level Jacksonville Center
03:18PM 30.7947 -87.2092 277° West 185 213 9,900  Level Jacksonville Center
03:19PM 30.7914 -87.2403 263° West 184 212 9,900  Level Jacksonville Center
03:19PM 30.7947 -87.2672 278° West 185 213 9,900  Level Jacksonville Center
03:20PM 30.7875 -87.2981 255° West 184 212 9,900 -540 Level Jacksonville Center
03:21PM 30.7831 -87.3608 265° West 190 219 9,200 -660 Descending Jacksonville Center
03:22PM 30.7767 -87.4233 263° West 194 223 8,600 -600 Descending Jacksonville Center
03:24PM 30.7747 -87.5475 269° West 191 220 7,400 -600 Descending Houston Center
03:25PM 30.7706 -87.6103 266° West 191 220 6,800 -600 Descending Houston Center
03:26PM 30.7675 -87.6717 267° West 191 220 6,200 -420 Descending Houston Center
03:27PM 30.7644 -87.7322 267° West 189 217 6,000 -240 Descending Houston Center
03:28PM 30.7625 -87.7889 268° West 181 208 5,800 -660 Descending Houston Center
03:29PM 30.7572 -87.8558 265° West 173 199 4,700 -840 Descending Houston Center
03:30PM 30.7494 -87.9150 261° West 179 206 4,100 -660 Descending Houston Center
03:31PM 30.7428 -87.9722 262° West 179 206 3,400 -540 Descending Houston Center
03:32PM 30.7381 -88.0325 265° West 181 208 3,000 -240 Descending Houston Center
03:33PM 30.7381 -88.0889 270° West 182 209 3,000  Level Houston Center
03:34PM 30.7747 -88.1281 317° Northwest 178 205 3,000  Level Houston Center
03:35PM 30.8161 -88.1767 315° West 177 204 3,000  Level Houston Center
03:36PM 30.8267 -88.2211 285° West 178 205 3,000  Level Houston Center
03:38PM 30.7908 -88.2103 165° South 149 171 3,000 -300 Level Houston Center
03:39PM 30.7558 -88.2131 184° South 150 173 2,500 -960 Descending Houston Center
03:40PM 30.7219 -88.2372 212° Southwest 148 170 1,100 -1,020 Descending Houston Center
03:41PM 30.6850 -88.2369 180° South 134 154 500 -600 Descending Houston Center